createdAt,value
2023-05-05T00:00:00.915Z,7.07
2023-05-05T00:01:00.947Z,6.98
2023-05-05T00:02:00.962Z,6.89
2023-05-05T00:03:01.007Z,6.91
2023-05-05T00:04:00.986Z,6.93
2023-05-05T00:05:00.900Z,6.95
2023-05-05T00:06:00.902Z,6.96
2023-05-05T00:07:00.887Z,6.92
2023-05-05T00:08:00.896Z,7.01
2023-05-05T00:09:00.873Z,6.90
2023-05-05T00:10:00.868Z,6.88
2023-05-05T00:11:00.900Z,7.02
2023-05-05T00:12:00.942Z,6.83
2023-05-05T00:13:00.983Z,6.88
2023-05-05T00:14:01.033Z,6.83
2023-05-05T00:15:01.147Z,6.80
2023-05-05T00:16:01.196Z,6.93
2023-05-05T00:17:01.291Z,6.69
2023-05-05T00:18:01.294Z,6.69
2023-05-05T00:19:01.321Z,6.77
2023-05-05T00:20:01.423Z,6.80
2023-05-05T00:21:02.968Z,6.65
2023-05-05T00:22:01.534Z,6.59
2023-05-05T00:23:01.554Z,6.77
2023-05-05T00:24:01.602Z,6.68
2023-05-05T00:25:01.651Z,6.70
2023-05-05T00:26:01.729Z,6.76
2023-05-05T00:27:01.769Z,6.57
2023-05-05T00:28:01.859Z,6.57
2023-05-05T00:29:01.879Z,6.58
2023-05-05T00:30:01.965Z,6.61
2023-05-05T00:31:02.251Z,6.45
2023-05-05T00:32:02.077Z,6.51
2023-05-05T00:33:02.211Z,6.56
2023-05-05T00:34:02.213Z,6.54
2023-05-05T00:35:02.318Z,6.54
2023-05-05T00:36:02.344Z,6.59
2023-05-05T00:37:02.405Z,6.53
2023-05-05T00:38:02.590Z,6.39
2023-05-05T00:39:02.491Z,6.42
2023-05-05T00:40:02.566Z,6.50
2023-05-05T00:41:02.675Z,6.40
2023-05-05T00:42:02.682Z,6.31
2023-05-05T00:43:02.881Z,6.48
2023-05-05T00:44:02.798Z,6.38
2023-05-05T00:45:02.889Z,6.42
2023-05-05T00:46:02.984Z,6.29
2023-05-05T00:47:02.968Z,6.32
2023-05-05T00:48:03.154Z,6.21
2023-05-05T00:49:03.219Z,6.38
2023-05-05T00:50:03.150Z,6.31
2023-05-05T00:51:03.243Z,6.25
2023-05-05T00:52:03.403Z,6.21
2023-05-05T00:53:03.358Z,6.27
2023-05-05T00:54:03.393Z,6.20
2023-05-05T00:55:03.465Z,6.29
2023-05-05T00:56:03.544Z,6.14
2023-05-05T00:57:03.612Z,6.20
2023-05-05T00:58:03.709Z,6.18
2023-05-05T00:59:03.727Z,6.02
2023-05-05T01:00:03.783Z,6.09
2023-05-05T01:01:03.853Z,6.08
2023-05-05T01:02:03.908Z,6.13
2023-05-05T01:03:04.035Z,6.08
2023-05-05T01:04:04.084Z,6.01
2023-05-05T01:05:04.037Z,6.08
2023-05-05T01:06:04.071Z,6.16
2023-05-05T01:07:04.133Z,5.93
2023-05-05T01:08:04.204Z,6.01
2023-05-05T01:09:04.269Z,5.99
2023-05-05T01:10:18.186Z,5.90
2023-05-05T01:11:05.308Z,5.91
2023-05-05T01:12:04.275Z,5.93
2023-05-05T01:13:04.338Z,5.96
2023-05-05T01:14:04.272Z,6.04
2023-05-05T01:15:04.272Z,6.08
2023-05-05T01:16:04.293Z,6.03
2023-05-05T01:17:04.306Z,6.08
2023-05-05T01:18:04.286Z,5.97
2023-05-05T01:19:04.341Z,5.93
2023-05-05T01:20:04.391Z,5.82
2023-05-05T01:21:06.002Z,5.82
2023-05-05T01:22:04.463Z,5.90
2023-05-05T01:23:04.540Z,5.93
2023-05-05T01:24:04.690Z,5.93
2023-05-05T01:25:04.661Z,5.88
2023-05-05T01:26:04.730Z,5.89
2023-05-05T01:27:04.814Z,5.78
2023-05-05T01:28:04.830Z,5.88
2023-05-05T01:29:04.861Z,5.66
2023-05-05T01:30:04.941Z,5.77
2023-05-05T01:31:04.976Z,5.76
2023-05-05T01:32:04.990Z,5.79
2023-05-05T01:33:05.098Z,5.80
2023-05-05T01:34:05.123Z,5.83
2023-05-05T01:35:05.154Z,5.71
2023-05-05T01:36:05.204Z,5.80
2023-05-05T01:37:05.269Z,5.74
2023-05-05T01:38:05.282Z,5.68
2023-05-05T01:39:05.356Z,5.67
2023-05-05T01:40:05.584Z,5.69
2023-05-05T01:41:05.451Z,5.66
2023-05-05T01:42:05.495Z,5.60
2023-05-05T01:43:05.522Z,5.65
2023-05-05T01:44:05.536Z,5.59
2023-05-05T01:45:05.607Z,5.63
2023-05-05T01:46:05.687Z,5.50
2023-05-05T01:47:05.685Z,5.56
2023-05-05T01:48:05.808Z,5.46
2023-05-05T01:49:05.766Z,5.56
2023-05-05T01:50:06.116Z,5.53
2023-05-05T01:51:05.831Z,5.46
2023-05-05T01:52:05.810Z,5.53
2023-05-05T01:53:05.853Z,5.51
2023-05-05T01:54:05.885Z,5.41
2023-05-05T01:55:05.890Z,5.50
2023-05-05T01:56:05.936Z,5.58
2023-05-05T01:57:05.991Z,5.41
2023-05-05T01:58:05.977Z,5.43
2023-05-05T01:59:05.983Z,5.41
2023-05-05T02:00:06.154Z,5.44
2023-05-05T02:01:09.044Z,5.34
2023-05-05T02:02:06.117Z,5.51
2023-05-05T02:03:06.196Z,5.38
2023-05-05T02:04:06.077Z,5.40
2023-05-05T02:05:06.085Z,5.37
2023-05-05T02:06:06.095Z,5.34
2023-05-05T02:07:06.095Z,5.34
2023-05-05T02:08:06.073Z,5.30
2023-05-05T02:09:06.016Z,5.26
2023-05-05T02:10:06.345Z,5.33
2023-05-05T02:11:06.033Z,5.35
2023-05-05T02:12:06.048Z,5.17
2023-05-05T02:13:06.089Z,5.27
2023-05-05T02:14:06.003Z,5.32
2023-05-05T02:15:06.056Z,5.23
2023-05-05T02:16:06.192Z,5.23
2023-05-05T02:17:05.993Z,5.27
2023-05-05T02:18:06.059Z,5.26
2023-05-05T02:19:06.007Z,5.25
2023-05-05T02:20:06.140Z,5.23
2023-05-05T02:21:05.970Z,5.06
2023-05-05T02:22:06.141Z,5.13
2023-05-05T02:23:06.057Z,5.19
2023-05-05T02:24:05.954Z,5.18
2023-05-05T02:25:05.957Z,5.06
2023-05-05T02:26:06.166Z,5.18
2023-05-05T02:27:05.946Z,5.12
2023-05-05T02:28:05.925Z,5.04
2023-05-05T02:29:05.904Z,4.96
2023-05-05T02:30:06.100Z,5.08
2023-05-05T02:31:05.946Z,5.04
2023-05-05T02:32:05.903Z,5.10
2023-05-05T02:33:05.925Z,5.02
2023-05-05T02:34:05.879Z,5.04
2023-05-05T02:35:05.906Z,5.07
2023-05-05T02:36:06.009Z,4.93
2023-05-05T02:37:05.857Z,4.97
2023-05-05T02:38:05.844Z,5.00
2023-05-05T02:39:05.886Z,4.88
2023-05-05T02:40:06.087Z,4.99
2023-05-05T02:41:07.547Z,4.90
2023-05-05T02:42:05.859Z,4.92
2023-05-05T02:43:05.861Z,5.00
2023-05-05T02:44:05.842Z,5.01
2023-05-05T02:45:05.832Z,4.86
2023-05-05T02:46:05.826Z,4.85
2023-05-05T02:47:06.055Z,4.80
2023-05-05T02:48:05.831Z,4.88
2023-05-05T02:49:05.784Z,4.84
2023-05-05T02:50:05.873Z,4.82
2023-05-05T02:51:05.782Z,4.84
2023-05-05T02:52:05.748Z,4.81
2023-05-05T02:53:05.810Z,4.84
2023-05-05T02:54:05.746Z,4.67
2023-05-05T02:55:05.728Z,4.76
2023-05-05T02:56:05.751Z,4.79
2023-05-05T02:57:05.716Z,4.78
2023-05-05T02:58:05.719Z,4.78
2023-05-05T02:59:05.713Z,4.70
2023-05-05T03:00:06.022Z,4.71
2023-05-05T03:01:05.679Z,4.70
2023-05-05T03:02:05.699Z,4.78
2023-05-05T03:03:05.819Z,4.66
2023-05-05T03:04:05.677Z,4.68
2023-05-05T03:05:05.685Z,4.73
2023-05-05T03:06:05.709Z,4.68
2023-05-05T03:07:05.680Z,4.66
2023-05-05T03:08:05.726Z,4.64
2023-05-05T03:09:05.728Z,4.69
2023-05-05T03:10:05.939Z,4.73
2023-05-05T03:11:05.648Z,4.67
2023-05-05T03:12:05.660Z,4.63
2023-05-05T03:13:05.649Z,4.54
2023-05-05T03:14:05.598Z,4.60
2023-05-05T03:15:05.592Z,4.67
2023-05-05T03:16:05.626Z,4.57
2023-05-05T03:17:05.595Z,4.56
2023-05-05T03:18:05.600Z,4.58
2023-05-05T03:19:05.611Z,4.58
2023-05-05T03:20:05.629Z,4.55
2023-05-05T03:21:05.579Z,4.52
2023-05-05T03:22:05.574Z,4.54
2023-05-05T03:23:05.567Z,4.50
2023-05-05T03:24:05.548Z,4.53
2023-05-05T03:25:05.531Z,4.51
2023-05-05T03:26:05.526Z,4.45
2023-05-05T03:27:05.533Z,4.42
2023-05-05T03:28:05.508Z,4.39
2023-05-05T03:29:05.517Z,4.47
2023-05-05T03:30:05.644Z,4.38
2023-05-05T03:31:05.529Z,4.44
2023-05-05T03:32:05.588Z,4.49
2023-05-05T03:33:05.541Z,4.34
2023-05-05T03:34:05.503Z,4.44
2023-05-05T03:35:05.494Z,4.37
2023-05-05T03:36:05.478Z,4.38
2023-05-05T03:37:05.459Z,4.40
2023-05-05T03:38:05.478Z,4.38
2023-05-05T03:39:05.467Z,4.37
2023-05-05T03:40:05.568Z,4.34
2023-05-05T03:41:05.473Z,4.30
2023-05-05T03:42:05.456Z,4.33
2023-05-05T03:43:05.446Z,4.38
2023-05-05T03:44:05.454Z,4.30
2023-05-05T03:45:05.453Z,4.29
2023-05-05T03:46:05.440Z,4.30
2023-05-05T03:47:05.415Z,4.42
2023-05-05T03:48:05.474Z,4.31
2023-05-05T03:49:05.438Z,4.28
2023-05-05T03:50:05.580Z,4.29
2023-05-05T03:51:05.428Z,4.29
2023-05-05T03:52:05.423Z,4.38
2023-05-05T03:53:05.424Z,4.28
2023-05-05T03:54:05.434Z,4.21
2023-05-05T03:55:05.417Z,4.19
2023-05-05T03:56:05.427Z,4.26
2023-05-05T03:57:05.440Z,4.23
2023-05-05T03:58:05.641Z,4.25
2023-05-05T03:59:05.520Z,4.19
2023-05-05T04:00:06.547Z,4.21
2023-05-05T04:01:05.478Z,4.18
2023-05-05T04:02:05.466Z,4.21
2023-05-05T04:03:05.706Z,4.13
2023-05-05T04:04:05.476Z,4.17
2023-05-05T04:05:05.405Z,4.18
2023-05-05T04:06:05.390Z,4.18
2023-05-05T04:07:05.417Z,4.10
2023-05-05T04:08:05.415Z,4.11
2023-05-05T04:09:05.433Z,4.09
2023-05-05T04:10:05.524Z,4.09
2023-05-05T04:11:05.415Z,4.10
2023-05-05T04:12:05.420Z,4.13
2023-05-05T04:13:05.472Z,4.06
2023-05-05T04:14:05.480Z,4.02
2023-05-05T04:15:05.394Z,4.16
2023-05-05T04:16:05.408Z,4.03
2023-05-05T04:17:05.429Z,4.03
2023-05-05T04:18:05.475Z,4.07
2023-05-05T04:19:05.431Z,4.10
2023-05-05T04:20:05.541Z,4.05
2023-05-05T04:21:05.457Z,3.97
2023-05-05T04:22:05.458Z,3.97
2023-05-05T04:23:05.769Z,4.00
2023-05-05T04:24:05.439Z,3.97
2023-05-05T04:25:05.432Z,4.01
2023-05-05T04:26:05.451Z,3.93
2023-05-05T04:27:05.440Z,3.97
2023-05-05T04:28:05.440Z,3.88
2023-05-05T04:29:05.451Z,3.91
2023-05-05T04:30:05.565Z,3.90
2023-05-05T04:31:05.475Z,3.92
2023-05-05T04:32:05.475Z,3.94
2023-05-05T04:33:05.534Z,3.87
2023-05-05T04:34:05.447Z,3.80
2023-05-05T04:35:05.456Z,3.92
2023-05-05T04:36:05.455Z,3.91
2023-05-05T04:37:05.432Z,3.86
2023-05-05T04:38:05.489Z,3.82
2023-05-05T04:39:05.497Z,3.82
2023-05-05T04:40:05.520Z,3.84
2023-05-05T04:41:05.601Z,3.84
2023-05-05T04:42:05.452Z,3.82
2023-05-05T04:43:05.453Z,3.86
2023-05-05T04:44:05.435Z,3.80
2023-05-05T04:45:05.486Z,3.85
2023-05-05T04:46:05.526Z,3.76
2023-05-05T04:47:05.441Z,3.76
2023-05-05T04:48:05.490Z,3.73
2023-05-05T04:49:05.442Z,3.75
2023-05-05T04:50:05.458Z,3.78
2023-05-05T04:51:05.415Z,3.71
2023-05-05T04:52:05.456Z,3.70
2023-05-05T04:53:05.413Z,3.68
2023-05-05T04:54:05.410Z,3.72
2023-05-05T04:55:05.574Z,3.69
2023-05-05T04:56:05.433Z,3.73
2023-05-05T04:57:05.420Z,3.70
2023-05-05T04:58:05.478Z,3.76
2023-05-05T04:59:05.394Z,3.73
2023-05-05T05:00:05.616Z,3.69
2023-05-05T05:01:05.432Z,3.72
2023-05-05T05:02:05.467Z,3.71
2023-05-05T05:03:05.475Z,3.69
2023-05-05T05:04:05.433Z,3.63
2023-05-05T05:05:05.413Z,3.60
2023-05-05T05:06:05.428Z,3.71
2023-05-05T05:07:05.408Z,3.63
2023-05-05T05:08:05.447Z,3.63
2023-05-05T05:09:05.409Z,3.74
2023-05-05T05:10:05.591Z,3.64
2023-05-05T05:11:05.417Z,3.55
2023-05-05T05:12:05.401Z,3.61
2023-05-05T05:13:05.457Z,3.59
2023-05-05T05:14:05.449Z,3.62
2023-05-05T05:15:05.511Z,3.61
2023-05-05T05:16:05.417Z,3.54
2023-05-05T05:17:05.369Z,3.60
2023-05-05T05:18:05.429Z,3.50
2023-05-05T05:19:05.388Z,3.53
2023-05-05T05:20:05.426Z,3.47
2023-05-05T05:21:05.495Z,3.44
2023-05-05T05:22:05.439Z,3.53
2023-05-05T05:23:05.425Z,3.48
2023-05-05T05:24:05.449Z,3.48
2023-05-05T05:25:05.425Z,3.37
2023-05-05T05:26:05.651Z,3.36
2023-05-05T05:27:08.519Z,3.40
2023-05-05T05:28:09.466Z,3.41
2023-05-05T05:29:06.454Z,3.41
2023-05-05T05:30:05.482Z,3.42
2023-05-05T05:31:05.604Z,3.43
2023-05-05T05:32:05.410Z,3.42
2023-05-05T05:33:05.463Z,3.38
2023-05-05T05:34:05.641Z,3.36
2023-05-05T05:35:05.403Z,3.37
2023-05-05T05:36:07.290Z,3.38
2023-05-05T05:37:05.489Z,3.38
2023-05-05T05:38:06.404Z,3.39
2023-05-05T05:39:05.373Z,3.43
2023-05-05T05:40:05.527Z,3.52
2023-05-05T05:41:05.371Z,3.45
2023-05-05T05:42:05.460Z,3.44
2023-05-05T05:43:05.366Z,3.52
2023-05-05T05:44:05.720Z,3.68
2023-05-05T05:45:05.341Z,3.57
2023-05-05T05:46:06.946Z,3.64
2023-05-05T05:47:05.300Z,3.65
2023-05-05T05:48:06.174Z,3.70
2023-05-05T05:49:05.356Z,3.81
2023-05-05T05:50:05.405Z,4.06
2023-05-05T05:51:05.296Z,4.36
2023-05-05T05:52:05.300Z,4.39
2023-05-05T05:53:05.262Z,4.51
2023-05-05T05:54:05.295Z,4.65
2023-05-05T05:55:05.249Z,4.78
2023-05-05T05:56:05.582Z,4.91
2023-05-05T05:57:05.219Z,5.07
2023-05-05T05:58:05.386Z,4.93
2023-05-05T05:59:06.279Z,5.11
2023-05-05T06:00:05.296Z,5.24
2023-05-05T06:01:05.223Z,5.41
2023-05-05T06:02:05.252Z,5.47
2023-05-05T06:03:05.375Z,5.37
2023-05-05T06:04:05.647Z,5.48
2023-05-05T06:05:05.207Z,5.55
2023-05-05T06:06:05.193Z,5.75
2023-05-05T06:07:05.153Z,5.93
2023-05-05T06:08:05.190Z,5.83
2023-05-05T06:09:05.166Z,5.90
2023-05-05T06:10:22.873Z,5.94
2023-05-05T06:11:06.168Z,5.96
2023-05-05T06:12:05.152Z,5.95
2023-05-05T06:13:05.328Z,6.03
2023-05-05T06:14:05.127Z,5.88
2023-05-05T06:15:05.119Z,6.09
2023-05-05T06:16:05.261Z,6.32
2023-05-05T06:17:05.136Z,6.31
2023-05-05T06:18:05.093Z,6.22
2023-05-05T06:19:05.160Z,6.07
2023-05-05T06:20:05.451Z,6.13
2023-05-05T06:21:05.098Z,6.10
2023-05-05T06:22:05.159Z,6.07
2023-05-05T06:23:05.211Z,6.11
2023-05-05T06:24:05.282Z,6.30
2023-05-05T06:25:05.286Z,6.10
2023-05-05T06:26:05.408Z,6.13
2023-05-05T06:27:05.458Z,6.25
2023-05-05T06:28:05.460Z,6.33
2023-05-05T06:29:05.477Z,6.54
2023-05-05T06:30:05.639Z,6.56
2023-05-05T06:31:05.585Z,6.59
2023-05-05T06:32:05.608Z,6.67
2023-05-05T06:33:05.726Z,6.84
2023-05-05T06:34:06.120Z,6.83
2023-05-05T06:35:05.800Z,6.69
2023-05-05T06:36:05.785Z,6.38
2023-05-05T06:37:08.077Z,6.12
2023-05-05T06:38:05.714Z,6.03
2023-05-05T06:39:05.708Z,5.90
2023-05-05T06:40:05.858Z,5.94
2023-05-05T06:41:05.774Z,5.87
2023-05-05T06:42:05.791Z,5.90
2023-05-05T06:43:05.902Z,5.89
2023-05-05T06:44:06.150Z,5.78
2023-05-05T06:45:05.951Z,5.55
2023-05-05T06:46:05.900Z,5.59
2023-05-05T06:47:06.204Z,5.74
2023-05-05T06:48:06.026Z,5.83
2023-05-05T06:49:06.008Z,5.78
2023-05-05T06:50:06.192Z,5.79
2023-05-05T06:51:06.080Z,5.65
2023-05-05T06:52:06.119Z,5.69
2023-05-05T06:53:06.197Z,5.80
2023-05-05T06:54:06.664Z,6.02
2023-05-05T06:55:06.216Z,5.62
2023-05-05T06:56:07.232Z,5.45
2023-05-05T06:57:06.274Z,5.12
2023-05-05T06:58:06.298Z,4.59
2023-05-05T06:59:06.304Z,4.54
2023-05-05T07:00:07.567Z,4.28
2023-05-05T07:01:07.222Z,3.75
2023-05-05T07:02:06.323Z,3.44
2023-05-05T07:03:06.392Z,3.95
2023-05-05T07:04:06.429Z,3.68
2023-05-05T07:05:07.152Z,3.31
2023-05-05T07:06:06.442Z,2.93
2023-05-05T07:07:06.431Z,3.03
2023-05-05T07:08:06.444Z,3.02
2023-05-05T07:09:06.749Z,2.79
2023-05-05T07:10:06.755Z,2.69
2023-05-05T07:11:06.491Z,2.66
2023-05-05T07:12:06.674Z,2.85
2023-05-05T07:13:06.533Z,2.48
2023-05-05T07:14:06.677Z,2.48
2023-05-05T07:15:19.085Z,2.57
2023-05-05T07:16:07.564Z,2.58
2023-05-05T07:17:06.572Z,2.61
2023-05-05T07:18:06.655Z,2.43
2023-05-05T07:19:06.542Z,2.80
2023-05-05T07:20:06.705Z,3.28
2023-05-05T07:21:06.524Z,3.54
2023-05-05T07:22:06.554Z,3.19
2023-05-05T07:23:06.496Z,2.54
2023-05-05T07:24:06.639Z,2.44
2023-05-05T07:25:06.539Z,2.37
2023-05-05T07:26:06.497Z,2.39
2023-05-05T07:27:06.470Z,2.53
2023-05-05T07:28:06.473Z,2.89
2023-05-05T07:29:07.193Z,2.83
2023-05-05T07:30:10.915Z,3.01
2023-05-05T07:31:07.637Z,3.04
2023-05-05T07:32:06.669Z,3.16
2023-05-05T07:33:06.824Z,3.46
2023-05-05T07:34:06.648Z,3.94
2023-05-05T07:35:06.699Z,4.74
2023-05-05T07:36:06.667Z,5.11
2023-05-05T07:37:07.198Z,5.29
2023-05-05T07:38:07.695Z,5.37
2023-05-05T07:39:06.706Z,5.49
2023-05-05T07:40:06.929Z,5.46
2023-05-05T07:41:06.758Z,5.51
2023-05-05T07:42:06.711Z,5.46
2023-05-05T07:43:06.703Z,5.58
2023-05-05T07:44:06.714Z,5.62
2023-05-05T07:45:06.790Z,5.64
2023-05-05T07:46:06.744Z,5.69
2023-05-05T07:47:06.733Z,5.76
2023-05-05T07:48:06.821Z,5.65
2023-05-05T07:49:07.190Z,5.75
2023-05-05T07:50:07.137Z,5.83
2023-05-05T07:51:06.717Z,5.76
2023-05-05T07:52:06.722Z,6.12
2023-05-05T07:53:14.242Z,6.04
2023-05-05T07:54:08.151Z,6.00
2023-05-05T07:55:06.784Z,5.83
2023-05-05T07:56:06.714Z,6.06
2023-05-05T07:57:06.891Z,6.20
2023-05-05T07:58:07.741Z,6.32
2023-05-05T07:59:07.135Z,6.45
2023-05-05T08:00:07.003Z,6.70
2023-05-05T08:01:06.706Z,6.74
2023-05-05T08:02:07.220Z,6.99
2023-05-05T08:03:10.636Z,6.98
2023-05-05T08:04:06.988Z,6.99
2023-05-05T08:05:07.054Z,7.03
2023-05-05T08:06:06.685Z,7.12
2023-05-05T08:07:06.724Z,7.33
2023-05-05T08:08:08.250Z,8.23
2023-05-05T08:09:06.654Z,8.22
2023-05-05T08:10:06.631Z,8.18
2023-05-05T08:11:06.915Z,8.35
2023-05-05T08:12:06.641Z,8.81
2023-05-05T08:13:06.693Z,9.53
2023-05-05T08:14:06.613Z,9.37
2023-05-05T08:15:06.976Z,9.59
2023-05-05T08:16:06.611Z,9.87
2023-05-05T08:17:06.561Z,10.81
2023-05-05T08:18:06.671Z,10.94
2023-05-05T08:19:14.825Z,11.09
2023-05-05T08:20:07.574Z,11.11
2023-05-05T08:21:06.591Z,11.19
2023-05-05T08:22:06.588Z,11.28
2023-05-05T08:23:07.811Z,10.97
2023-05-05T08:24:06.727Z,8.78
2023-05-05T08:25:07.797Z,9.31
2023-05-05T08:26:06.529Z,8.64
2023-05-05T08:27:19.692Z,9.71
2023-05-05T08:28:06.681Z,9.77
2023-05-05T08:29:06.549Z,9.93
2023-05-05T08:30:06.501Z,10.23
2023-05-05T08:31:06.600Z,10.93
2023-05-05T08:32:06.486Z,12.19
2023-05-05T08:33:06.600Z,11.86
2023-05-05T08:34:06.480Z,10.43
2023-05-05T08:35:06.681Z,9.76
2023-05-05T08:36:06.559Z,11.07
2023-05-05T08:37:06.596Z,12.99
2023-05-05T08:38:07.474Z,13.93
2023-05-05T08:39:06.470Z,15.62
2023-05-05T08:40:06.457Z,16.68
2023-05-05T08:41:06.531Z,17.38
2023-05-05T08:42:06.415Z,18.54
2023-05-05T08:43:06.412Z,18.38
2023-05-05T08:44:06.369Z,19.23
2023-05-05T08:45:07.392Z,19.36
2023-05-05T08:46:06.409Z,20.58
2023-05-05T08:47:06.961Z,20.55
2023-05-05T08:48:06.879Z,20.92
2023-05-05T08:49:06.359Z,21.59
2023-05-05T08:50:06.371Z,21.45
2023-05-05T08:51:06.359Z,13.17
2023-05-05T08:52:07.411Z,11.77
2023-05-05T08:53:06.549Z,15.77
2023-05-05T08:54:06.702Z,11.28
2023-05-05T08:55:06.773Z,6.70
2023-05-05T08:56:06.927Z,5.17
2023-05-05T08:57:06.773Z,6.51
2023-05-05T08:58:06.796Z,7.12
2023-05-05T08:59:06.831Z,7.28
2023-05-05T09:00:06.827Z,6.90
2023-05-05T09:01:07.015Z,4.67
2023-05-05T09:02:06.968Z,5.51
2023-05-05T09:03:07.324Z,6.30
2023-05-05T09:04:07.128Z,6.37
2023-05-05T09:05:07.572Z,7.38
2023-05-05T09:06:07.176Z,7.84
2023-05-05T09:07:07.305Z,7.10
2023-05-05T09:08:07.288Z,7.46
2023-05-05T09:09:08.063Z,4.45
2023-05-05T09:10:07.443Z,4.59
2023-05-05T09:11:07.537Z,4.91
2023-05-05T09:12:07.739Z,5.65
2023-05-05T09:13:07.839Z,4.76
2023-05-05T09:14:07.671Z,3.46
2023-05-05T09:15:08.029Z,2.63
2023-05-05T09:16:07.792Z,2.61
2023-05-05T09:17:07.985Z,3.41
2023-05-05T09:18:07.972Z,3.53
2023-05-05T09:19:08.024Z,3.75
2023-05-05T09:20:09.132Z,3.56
2023-05-05T09:21:08.093Z,4.19
2023-05-05T09:22:08.127Z,4.35
2023-05-05T09:23:08.208Z,4.36
2023-05-05T09:24:09.131Z,4.36
2023-05-05T09:25:08.363Z,4.11
2023-05-05T09:26:08.145Z,4.35
2023-05-05T09:27:08.151Z,3.83
2023-05-05T09:28:08.317Z,4.45
2023-05-05T09:29:09.277Z,5.10
2023-05-05T09:30:09.153Z,5.18
2023-05-05T09:31:08.208Z,5.83
2023-05-05T09:32:08.186Z,3.44
2023-05-05T09:33:08.776Z,3.19
2023-05-05T09:34:08.274Z,2.74
2023-05-05T09:35:08.504Z,3.23
2023-05-05T09:36:08.428Z,3.64
2023-05-05T09:37:08.517Z,3.71
2023-05-05T09:38:08.753Z,4.43
2023-05-05T09:39:08.616Z,3.90
2023-05-05T09:40:08.679Z,2.37
2023-05-05T09:41:08.916Z,1.46
2023-05-05T09:42:08.809Z,1.39
2023-05-05T09:43:09.042Z,1.67
2023-05-05T09:44:08.923Z,1.92
2023-05-05T09:45:09.141Z,1.97
2023-05-05T09:46:09.083Z,2.04
2023-05-05T09:47:21.991Z,1.32
2023-05-05T09:48:10.086Z,1.32
2023-05-05T09:49:09.094Z,1.07
2023-05-05T09:50:09.278Z,1.08
2023-05-05T09:51:09.046Z,1.21
2023-05-05T09:52:09.023Z,1.57
2023-05-05T09:53:09.034Z,1.76
2023-05-05T09:54:09.080Z,1.68
2023-05-05T09:55:09.013Z,1.78
2023-05-05T09:56:09.078Z,2.15
2023-05-05T09:57:09.113Z,1.37
2023-05-05T09:58:09.289Z,1.29
2023-05-05T09:59:09.259Z,1.37
2023-05-05T10:00:09.449Z,1.32
2023-05-05T10:01:09.370Z,1.04
2023-05-05T10:02:09.486Z,1.30
2023-05-05T10:03:09.577Z,1.23
2023-05-05T10:04:09.547Z,0.98
2023-05-05T10:05:09.811Z,1.17
2023-05-05T10:06:09.640Z,0.96
2023-05-05T10:07:09.699Z,1.14
2023-05-05T10:08:09.724Z,1.47
2023-05-05T10:09:09.786Z,1.79
2023-05-05T10:10:10.209Z,2.04
2023-05-05T10:11:09.922Z,1.76
2023-05-05T10:12:09.965Z,1.81
2023-05-05T10:13:10.058Z,1.24
2023-05-05T10:14:10.117Z,0.87
2023-05-05T10:15:10.177Z,0.95
2023-05-05T10:16:10.254Z,0.99
2023-05-05T10:17:10.285Z,0.76
2023-05-05T10:18:10.435Z,0.77
2023-05-05T10:19:10.411Z,1.34
2023-05-05T10:20:10.825Z,1.64
2023-05-05T10:21:10.688Z,0.99
2023-05-05T10:22:10.576Z,1.21
2023-05-05T10:23:10.620Z,0.82
2023-05-05T10:24:10.660Z,1.16
2023-05-05T10:25:11.488Z,1.39
2023-05-05T10:26:10.827Z,1.52
2023-05-05T10:27:12.146Z,1.76
2023-05-05T10:28:11.328Z,1.78
2023-05-05T10:29:16.806Z,1.73
2023-05-05T10:30:12.455Z,1.77
2023-05-05T10:31:24.205Z,1.81
2023-05-05T10:32:30.211Z,1.78
2023-05-05T10:33:30.287Z,1.78
2023-05-05T10:34:12.261Z,1.78
2023-05-05T10:35:12.702Z,1.79
2023-05-05T10:36:13.636Z,1.77
2023-05-05T10:37:10.993Z,1.77
2023-05-05T10:38:13.911Z,1.19
2023-05-05T10:39:11.937Z,1.24
2023-05-05T10:40:11.093Z,1.52
2023-05-05T10:41:11.749Z,1.06
2023-05-05T10:42:11.292Z,1.32
2023-05-05T10:43:11.210Z,1.31
2023-05-05T10:44:11.032Z,1.43
2023-05-05T10:45:12.161Z,1.23
2023-05-05T10:46:11.564Z,1.53
2023-05-05T10:47:11.224Z,1.54
2023-05-05T10:48:11.050Z,1.42
2023-05-05T10:49:12.933Z,0.70
2023-05-05T10:50:11.215Z,1.24
2023-05-05T10:51:11.136Z,1.50
2023-05-05T10:52:11.677Z,1.66
2023-05-05T10:53:14.799Z,1.65
2023-05-05T10:54:11.639Z,1.65
2023-05-05T10:55:11.347Z,1.67
2023-05-05T10:56:11.648Z,1.73
2023-05-05T10:57:11.757Z,1.82
2023-05-05T10:58:11.253Z,1.87
2023-05-05T10:59:11.482Z,1.67
2023-05-05T11:01:30.509Z,0.50
2023-05-05T11:02:30.286Z,0.50
2023-05-05T11:03:30.365Z,0.50
2023-05-05T11:04:30.141Z,0.50
2023-05-05T11:05:30.801Z,0.50
2023-05-05T11:06:30.106Z,0.50
2023-05-05T11:07:30.258Z,0.51
2023-05-05T11:08:31.494Z,0.50
2023-05-05T11:09:30.408Z,0.57
2023-05-05T11:10:31.036Z,0.53
2023-05-05T11:11:30.537Z,0.53
2023-05-05T11:12:30.500Z,0.54
2023-05-05T11:13:30.443Z,0.54
2023-05-05T11:14:31.066Z,0.53
2023-05-05T11:15:30.858Z,0.53
2023-05-05T11:16:30.698Z,0.50
2023-05-05T11:17:30.904Z,0.50
2023-05-05T11:18:30.745Z,0.52
2023-05-05T11:19:30.855Z,0.54
2023-05-05T11:20:31.863Z,0.54
2023-05-05T11:21:30.899Z,0.51
2023-05-05T11:22:30.973Z,0.50
2023-05-05T11:23:31.204Z,0.50
2023-05-05T11:24:31.083Z,0.50
2023-05-05T11:25:31.215Z,0.50
2023-05-05T11:26:31.891Z,0.49
2023-05-05T11:27:31.266Z,0.54
2023-05-05T11:28:32.367Z,0.54
2023-05-05T11:29:31.514Z,0.53
2023-05-05T11:30:31.452Z,0.50
2023-05-05T11:31:31.624Z,0.59
2023-05-05T11:32:31.617Z,0.58
2023-05-05T11:33:31.744Z,0.34
2023-05-05T11:34:31.677Z,0.34
2023-05-05T11:35:31.767Z,0.34
2023-05-05T11:36:31.814Z,0.34
2023-05-05T11:37:31.865Z,0.34
2023-05-05T11:38:31.897Z,0.34
2023-05-05T11:39:31.902Z,0.53
2023-05-05T11:40:31.910Z,1.02
2023-05-05T11:41:31.936Z,1.53
2023-05-05T11:42:32.085Z,1.28
2023-05-05T11:43:31.977Z,1.63
2023-05-05T11:44:32.004Z,1.98
2023-05-05T11:45:32.030Z,2.25
2023-05-05T11:46:32.112Z,2.53
2023-05-05T11:47:32.279Z,2.54
2023-05-05T11:48:32.170Z,2.68
2023-05-05T11:49:32.232Z,2.83
2023-05-05T11:50:32.316Z,2.84
2023-05-05T11:51:32.353Z,3.09
2023-05-05T11:52:32.426Z,3.26
2023-05-05T11:53:32.497Z,3.22
2023-05-05T11:54:32.533Z,3.40
2023-05-05T11:55:32.688Z,3.47
2023-05-05T11:56:32.667Z,3.55
2023-05-05T11:57:32.753Z,3.78
2023-05-05T11:58:32.808Z,3.97
2023-05-05T11:59:32.843Z,4.22
2023-05-05T12:00:32.936Z,4.34
2023-05-05T12:01:32.984Z,4.53
2023-05-05T12:02:33.113Z,4.69
2023-05-05T12:03:33.173Z,5.01
2023-05-05T12:04:33.195Z,5.11
2023-05-05T12:05:34.863Z,5.31
2023-05-05T12:06:33.226Z,5.42
2023-05-05T12:07:33.228Z,5.51
2023-05-05T12:08:33.217Z,5.82
2023-05-05T12:09:33.284Z,5.87
2023-05-05T12:10:33.197Z,6.09
2023-05-05T12:11:33.198Z,6.21
2023-05-05T12:12:33.194Z,6.36
2023-05-05T12:13:33.157Z,6.54
2023-05-05T12:14:33.152Z,6.58
2023-05-05T12:15:33.167Z,6.65
2023-05-05T12:16:33.154Z,6.81
2023-05-05T12:17:33.205Z,6.94
2023-05-05T12:18:33.170Z,6.94
2023-05-05T12:19:33.196Z,7.11
2023-05-05T12:20:33.163Z,7.13
2023-05-05T12:21:33.103Z,7.18
2023-05-05T12:22:33.117Z,7.41
2023-05-05T12:23:33.084Z,7.42
2023-05-05T12:24:33.132Z,7.40
2023-05-05T12:25:33.185Z,7.51
2023-05-05T12:26:33.113Z,7.67
2023-05-05T12:27:33.295Z,7.65
2023-05-05T12:28:33.125Z,7.71
2023-05-05T12:29:33.056Z,7.76
2023-05-05T12:30:33.117Z,7.81
2023-05-05T12:31:33.108Z,7.90
2023-05-05T12:32:33.076Z,7.82
2023-05-05T12:33:33.028Z,7.84
2023-05-05T12:34:33.002Z,7.99
2023-05-05T12:35:33.007Z,7.98
2023-05-05T12:36:33.051Z,7.93
2023-05-05T12:37:33.047Z,7.99
2023-05-05T12:38:32.996Z,7.75
2023-05-05T12:39:33.007Z,7.70
2023-05-05T12:40:33.017Z,7.56
2023-05-05T12:41:33.124Z,7.53
2023-05-05T12:42:33.138Z,7.59
2023-05-05T12:43:33.304Z,7.83
2023-05-05T12:44:33.402Z,7.92
2023-05-05T12:45:33.344Z,8.01
2023-05-05T12:46:33.452Z,8.07
2023-05-05T12:47:33.505Z,8.08
2023-05-05T12:48:33.526Z,8.18
2023-05-05T12:49:33.591Z,8.06
2023-05-05T12:50:33.656Z,8.15
2023-05-05T12:51:33.713Z,7.97
2023-05-05T12:52:33.800Z,7.93
2023-05-05T12:53:33.847Z,7.88
2023-05-05T12:54:33.883Z,8.00
2023-05-05T12:55:33.968Z,8.01
2023-05-05T12:56:34.019Z,7.96
2023-05-05T12:57:34.034Z,8.05
2023-05-05T12:58:34.427Z,8.12
2023-05-05T12:59:34.288Z,8.10
2023-05-05T13:00:34.239Z,8.08
2023-05-05T13:01:34.313Z,8.15
2023-05-05T13:02:34.421Z,8.05
2023-05-05T13:03:34.425Z,8.16
2023-05-05T13:04:34.533Z,8.15
2023-05-05T13:05:34.572Z,7.93
2023-05-05T13:06:34.580Z,8.07
2023-05-05T13:07:34.625Z,7.84
2023-05-05T13:08:34.670Z,7.82
2023-05-05T13:09:34.747Z,7.86
2023-05-05T13:10:34.771Z,8.05
2023-05-05T13:11:34.863Z,7.95
2023-05-05T13:12:34.920Z,7.90
2023-05-05T13:13:35.879Z,7.98
2023-05-05T13:14:35.090Z,7.92
2023-05-05T13:15:35.093Z,7.82
2023-05-05T13:16:35.092Z,7.84
2023-05-05T13:17:35.232Z,7.81
2023-05-05T13:18:35.885Z,7.72